Time;durP1;ratioP1;P1;durP2;ratioP2;P2;SDS_P1;SDS_P2;PMS_P1;PMS_P2;Temp;Humidity;BMP_temperature;BMP_pressure;BME280_temperature;BME280_humidity;BME280_pressure;Samples;Min_cycle;Max_cycle;Signal;HPM_P1;HPM_P2
2021/12/06 00:02:14;;;;;;;19.70;10.40;;;2.00;99.90;;;1.18;100.00;96882.00;5026941;28;20088;-69
2021/12/06 00:04:41;;;;;;;27.15;14.88;;;2.10;99.90;;;1.04;100.00;96889.91;5027974;28;20068;-71
2021/12/06 00:07:16;;;;;;;25.02;13.77;;;2.00;99.90;;;0.96;100.00;96889.19;5032280;28;20084;-71
2021/12/06 00:09:44;;;;;;;26.00;14.77;;;2.00;99.90;;;0.87;100.00;96891.91;5050124;28;20140;-71
2021/12/06 00:12:14;;;;;;;26.75;14.90;;;2.00;99.90;;;0.80;100.00;96893.69;5028437;28;20080;-71
2021/12/06 00:14:41;;;;;;;29.25;15.18;;;2.00;99.90;;;0.76;100.00;96894.59;5027198;28;20134;-71
2021/12/06 00:17:15;;;;;;;20.98;11.43;;;1.90;99.90;;;0.77;100.00;96895.44;5030795;28;20541;-70
2021/12/06 00:19:44;;;;;;;19.13;9.23;;;1.90;99.90;;;0.84;100.00;96886.81;5031829;28;20049;-70
2021/12/06 00:22:21;;;;;;;18.15;10.60;;;1.90;99.90;;;0.78;100.00;96886.94;5028046;28;20202;-71
2021/12/06 00:24:55;;;;;;;13.23;6.65;;;1.90;99.90;;;0.69;100.00;96892.19;5031794;28;20458;-71
2021/12/06 00:27:23;;;;;;;19.45;10.68;;;1.80;99.90;;;0.55;100.00;96892.38;5031199;28;20088;-70
2021/12/06 00:29:51;;;;;;;34.30;12.77;;;1.70;99.90;;;0.38;100.00;96900.25;5030527;28;20067;-71
2021/12/06 00:32:18;;;;;;;12.30;7.03;;;1.60;99.90;;;0.39;100.00;96900.22;5029739;28;20073;-71
2021/12/06 00:34:46;;;;;;;19.30;11.45;;;1.60;99.90;;;0.45;100.00;96903.56;5025457;28;20116;-70
2021/12/06 00:37:23;;;;;;;24.33;13.20;;;1.60;99.90;;;0.31;100.00;96907.13;5032033;28;20087;-71
2021/12/06 00:39:55;;;;;;;25.23;13.02;;;1.50;99.90;;;0.44;100.00;96912.94;5030375;28;20073;-71
2021/12/06 00:42:26;;;;;;;19.05;10.77;;;1.50;99.90;;;0.52;100.00;96912.81;5020917;28;20103;-71
2021/12/06 00:44:54;;;;;;;24.40;11.80;;;1.60;99.90;;;0.56;100.00;96910.22;5039942;28;20061;-71
2021/12/06 00:47:21;;;;;;;18.13;9.93;;;1.60;99.90;;;0.58;100.00;96920.41;5033439;28;20235;-70
2021/12/06 00:49:50;;;;;;;16.55;9.00;;;1.70;99.90;;;0.62;100.00;96924.63;5036969;28;20125;-69
2021/12/06 00:52:18;;;;;;;15.70;8.38;;;1.70;99.90;;;0.71;100.00;96924.50;5045152;28;20077;-71
2021/12/06 00:54:46;;;;;;;17.20;9.57;;;1.80;99.90;;;0.78;100.00;96928.63;5048066;28;20070;-70
2021/12/06 00:57:14;;;;;;;17.38;9.27;;;1.80;99.90;;;0.86;100.00;96936.19;5023322;28;20077;-70
2021/12/06 00:59:43;;;;;;;20.70;10.68;;;1.80;99.90;;;0.76;100.00;96938.03;5029227;28;20069;-71
2021/12/06 01:02:12;;;;;;;19.02;10.98;;;1.90;99.90;;;0.86;100.00;96945.56;5024814;28;20054;-70
2021/12/06 01:04:43;;;;;;;17.50;8.35;;;1.80;99.90;;;0.92;100.00;96943.78;5020448;28;20056;-70
2021/12/06 01:07:11;;;;;;;18.08;9.40;;;1.80;99.90;;;0.95;100.00;96941.16;5025078;28;20076;-71
2021/12/06 01:09:39;;;;;;;18.08;10.57;;;1.90;99.90;;;0.85;100.00;96946.44;5014501;28;20052;-69
2021/12/06 01:12:08;;;;;;;23.05;11.15;;;1.90;99.90;;;0.82;100.00;96943.06;5024379;28;20046;-71
2021/12/06 01:14:35;;;;;;;25.83;12.85;;;2.00;99.90;;;0.70;100.00;96955.16;5034430;28;20440;-71
2021/12/06 01:17:04;;;;;;;20.75;11.80;;;1.80;99.90;;;0.63;100.00;96957.78;5037368;28;20080;-69
2021/12/06 01:19:31;;;;;;;20.67;11.57;;;1.90;99.90;;;0.72;100.00;96963.63;5031861;28;20124;-70
2021/12/06 01:22:28;;;;;;;20.08;11.07;;;1.80;99.90;;;0.78;100.00;96966.13;5039772;28;20128;-70
2021/12/06 01:24:57;;;;;;;19.63;10.63;;;1.80;99.90;;;0.80;100.00;96966.94;5017820;28;20057;-71
2021/12/06 01:41:16;;;;;;;18.77;9.85;;;2.00;99.90;;;1.07;100.00;96975.06;5025136;28;20077;-71
2021/12/06 01:44:10;;;;;;;10.93;6.57;;;2.00;99.90;;;1.11;100.00;96971.59;5019403;28;20080;-70
2021/12/06 01:47:13;;;;;;;18.15;10.13;;;2.10;99.90;;;1.01;100.00;96981.13;5021516;28;20101;-69
2021/12/06 01:49:49;;;;;;;14.13;8.82;;;2.10;99.90;;;0.80;100.00;96979.72;5003291;28;20506;-71
2021/12/06 01:52:42;;;;;;;16.15;9.88;;;2.00;99.90;;;0.85;100.00;96985.59;5043929;28;20277;-71
2021/12/06 01:55:15;;;;;;;13.48;8.75;;;2.00;99.90;;;0.88;100.00;96985.56;5026245;28;20084;-70
2021/12/06 01:57:42;;;;;;;18.55;10.43;;;1.90;99.90;;;0.75;100.00;96992.56;5029839;28;20129;-70
2021/12/06 02:00:20;;;;;;;22.33;12.15;;;1.80;99.90;;;0.66;100.00;96997.75;5020847;28;20133;-71
2021/12/06 02:02:47;;;;;;;17.42;10.23;;;1.80;99.90;;;0.57;100.00;97001.28;5021450;28;20092;-69
2021/12/06 02:05:15;;;;;;;14.57;7.75;;;1.70;99.90;;;0.64;100.00;96996.97;5028092;28;20049;-70
2021/12/06 02:07:43;;;;;;;20.30;9.68;;;1.70;99.90;;;0.65;100.00;97005.47;5042398;28;20073;-69
2021/12/06 02:10:11;;;;;;;13.40;7.38;;;1.70;99.90;;;0.57;100.00;97008.09;5029194;28;20085;-71
2021/12/06 02:12:38;;;;;;;15.27;9.05;;;1.60;99.90;;;0.64;100.00;97002.06;5039929;28;20042;-70
2021/12/06 02:15:19;;;;;;;11.23;5.90;;;1.60;99.90;;;0.53;100.00;97011.56;5023638;28;20434;-71
2021/12/06 02:17:55;;;;;;;14.77;8.82;;;1.60;99.90;;;0.63;100.00;97005.47;5013475;28;20230;-70
2021/12/06 02:20:27;;;;;;;12.23;7.32;;;1.70;99.90;;;0.60;100.00;97010.63;5047840;28;20447;-70
2021/12/06 02:22:55;;;;;;;10.88;6.43;;;1.70;99.90;;;0.74;100.00;97006.19;5025147;28;20128;-70
2021/12/06 02:25:23;;;;;;;11.27;6.38;;;1.70;99.90;;;0.79;100.00;97014.63;5037050;28;20044;-69
2021/12/06 02:27:52;;;;;;;13.27;6.95;;;1.70;99.90;;;0.81;100.00;97010.34;5030289;28;20080;-70
2021/12/06 02:30:21;;;;;;;25.70;12.13;;;1.70;99.90;;;0.39;100.00;97010.00;5036074;28;20573;-71
2021/12/06 02:32:50;;;;;;;20.45;10.35;;;1.80;99.90;;;0.24;100.00;97010.19;5027641;28;20510;-70
2021/12/06 02:35:21;;;;;;;13.98;7.32;;;1.70;99.90;;;0.30;100.00;97012.66;5038601;28;20136;-71
2021/12/06 02:37:50;;;;;;;11.38;6.15;;;1.60;99.90;;;0.47;100.00;97011.63;5029435;28;20053;-70
2021/12/06 02:40:28;;;;;;;10.18;5.95;;;1.50;99.90;;;0.51;100.00;97015.84;5037838;28;20128;-70
2021/12/06 02:42:58;;;;;;;12.27;7.68;;;1.50;99.90;;;0.61;100.00;97017.41;5033472;28;20143;-70
2021/12/06 02:45:27;;;;;;;14.40;8.00;;;1.40;99.90;;;0.29;100.00;97023.72;5029979;28;20076;-71
2021/12/06 02:47:58;;;;;;;11.82;5.03;;;1.40;99.90;;;0.25;100.00;97013.56;5024736;28;20128;-71
2021/12/06 02:50:36;;;;;;;7.95;3.90;;;1.40;99.90;;;0.19;100.00;97022.16;5025011;28;20124;-70
2021/12/06 02:53:05;;;;;;;6.00;3.05;;;1.30;99.90;;;0.02;100.00;97024.84;5029575;28;20129;-70
2021/12/06 02:55:36;;;;;;;8.05;4.05;;;1.20;99.90;;;0.16;100.00;97027.25;5017449;28;20072;-71
2021/12/06 02:58:22;;;;;;;7.50;3.83;;;1.10;99.90;;;0.15;100.00;97026.44;5021534;28;20073;-69
2021/12/06 03:00:55;;;;;;;9.15;4.90;;;1.10;99.90;;;0.24;100.00;97028.03;5029873;28;20470;-71
2021/12/06 03:03:23;;;;;;;13.15;6.28;;;1.10;99.90;;;0.11;100.00;97029.03;5035416;28;20408;-70
2021/12/06 03:05:52;;;;;;;12.45;6.18;;;1.20;99.90;;;0.24;100.00;97039.97;5031381;28;20096;-70
2021/12/06 03:08:46;;;;;;;6.82;3.83;;;1.10;99.90;;;0.35;100.00;97025.38;5023695;28;20451;-70
2021/12/06 03:11:19;;;;;;;9.95;4.45;;;1.20;99.90;;;0.32;100.00;97041.59;5030441;28;20103;-71
2021/12/06 03:13:47;;;;;;;8.80;4.78;;;1.30;99.90;;;0.25;100.00;97051.84;5040384;28;20048;-71
2021/12/06 03:16:15;;;;;;;9.60;5.28;;;1.30;99.90;;;0.37;100.00;97056.84;5022913;28;20145;-71
2021/12/06 03:18:45;;;;;;;9.57;4.75;;;1.30;99.90;;;0.35;100.00;97049.19;5012166;28;20475;-70
2021/12/06 03:21:14;;;;;;;9.23;5.22;;;1.40;99.90;;;0.46;100.00;97058.44;5022493;28;20077;-70
2021/12/06 03:23:41;;;;;;;11.23;6.65;;;1.40;99.90;;;0.38;100.00;97058.53;5029784;28;20188;-71
2021/12/06 03:26:09;;;;;;;12.15;5.63;;;1.50;99.90;;;0.41;100.00;97071.25;5015922;28;20128;-70
2021/12/06 03:28:44;;;;;;;8.02;4.30;;;1.50;99.90;;;0.28;100.00;97074.81;5005086;28;20100;-70
2021/12/06 03:31:12;;;;;;;10.40;5.00;;;1.40;99.90;;;0.23;100.00;97087.63;5027439;28;20430;-70
2021/12/06 03:33:43;;;;;;;10.73;5.18;;;1.30;99.90;;;0.09;100.00;97090.31;5032505;28;20500;-71
2021/12/06 03:36:11;;;;;;;8.45;4.28;;;1.20;99.90;;;0.17;100.00;97098.72;5034057;28;20504;-70
2021/12/06 03:38:39;;;;;;;198.35;13.20;;;1.30;99.90;;;0.06;100.00;97092.88;5021494;28;20129;-70
2021/12/06 03:41:09;;;;;;;312.83;15.68;;;1.20;99.90;;;-0.05;100.00;97094.66;5014311;28;20158;-71
2021/12/06 03:43:37;;;;;;;289.88;18.52;;;1.20;99.90;;;0.07;100.00;97096.25;5014177;28;20082;-70
2021/12/06 03:46:05;;;;;;;292.50;19.90;;;1.20;99.90;;;0.07;100.00;97097.13;5019826;28;20095;-70
2021/12/06 03:48:32;;;;;;;92.25;10.63;;;1.20;99.90;;;0.24;100.00;97096.13;5041826;28;20049;-71
2021/12/06 03:51:01;;;;;;;30.25;5.72;;;1.30;99.90;;;0.39;100.00;97101.09;5024589;28;20512;-71
2021/12/06 03:53:29;;;;;;;77.25;6.15;;;1.30;99.90;;;0.55;100.00;97105.16;5047056;28;20125;-69
2021/12/06 03:55:58;;;;;;;66.40;8.57;;;1.40;99.90;;;0.55;100.00;97106.88;5011760;28;20108;-70
2021/12/06 03:58:26;;;;;;;187.18;14.65;;;1.50;99.90;;;0.37;100.00;97113.84;5034082;28;20489;-70
2021/12/06 04:00:53;;;;;;;94.22;9.07;;;1.50;99.90;;;0.51;100.00;97107.78;5025006;28;20562;-71
2021/12/06 04:03:25;;;;;;;32.63;6.63;;;1.50;99.90;;;0.74;100.00;97105.81;5034256;28;20052;-71
2021/12/06 04:05:54;;;;;;;22.38;5.35;;;1.60;99.90;;;0.78;100.00;97110.03;5014043;28;20046;-70
2021/12/06 04:08:22;;;;;;;21.58;6.10;;;1.60;99.90;;;0.71;100.00;97115.19;5019971;28;20046;-70
2021/12/06 04:10:49;;;;;;;25.58;6.03;;;1.70;99.90;;;0.62;100.00;97117.00;5014370;28;20121;-71
2021/12/06 04:13:17;;;;;;;42.10;10.77;;;1.70;99.90;;;0.20;100.00;97123.38;5032850;28;20129;-70
2021/12/06 04:15:44;;;;;;;50.78;12.00;;;1.70;99.90;;;-0.02;100.00;97126.09;5038077;28;20087;-71
2021/12/06 04:18:12;;;;;;;24.00;8.85;;;1.70;99.90;;;-0.01;100.00;97130.34;5025366;28;20049;-71
2021/12/06 04:20:39;;;;;;;20.88;8.50;;;1.70;99.90;;;0.06;100.00;97132.84;5025247;28;20450;-70
2021/12/06 04:23:09;;;;;;;22.60;9.50;;;1.60;99.90;;;0.15;100.00;97136.16;5028529;28;20128;-71
2021/12/06 04:25:38;;;;;;;30.45;11.57;;;1.60;99.90;;;0.11;100.00;97134.50;5024971;28;20538;-71
2021/12/06 04:28:07;;;;;;;25.77;9.13;;;1.60;99.90;;;0.07;100.00;97139.63;5023325;28;20133;-70
2021/12/06 04:30:37;;;;;;;30.10;9.32;;;1.60;99.90;;;0.12;100.00;97148.97;5022033;28;20096;-70
2021/12/06 04:33:06;;;;;;;14.63;7.25;;;1.50;99.90;;;0.39;100.00;97145.31;5028527;28;20132;-71
2021/12/06 04:35:36;;;;;;;15.38;8.02;;;1.60;99.90;;;0.66;100.00;97153.56;5028555;28;20128;-70
2021/12/06 04:38:06;;;;;;;17.33;7.80;;;1.70;99.90;;;0.72;100.00;97153.50;5012157;28;20049;-70
2021/12/06 04:40:33;;;;;;;13.48;6.38;;;1.70;99.90;;;0.93;100.00;97154.13;5029973;28;20120;-71
2021/12/06 04:43:00;;;;;;;12.80;6.50;;;1.80;99.90;;;1.05;100.00;97154.00;5022721;28;20084;-70
2021/12/06 04:45:28;;;;;;;15.73;7.05;;;1.90;99.90;;;0.91;100.00;97153.31;5029166;28;20049;-70
2021/12/06 04:47:56;;;;;;;13.85;6.55;;;2.00;99.90;;;0.99;100.00;97160.03;5027335;28;20670;-71
2021/12/06 04:50:26;;;;;;;10.55;5.18;;;1.90;99.90;;;1.03;100.00;97155.75;5030457;28;20075;-71
2021/12/06 04:52:56;;;;;;;16.00;5.72;;;1.90;99.90;;;1.14;100.00;97159.03;5036442;28;20100;-71
2021/12/06 04:55:38;;;;;;;13.35;6.35;;;2.00;99.90;;;1.20;100.00;97164.03;5032512;28;20073;-71
2021/12/06 04:58:07;;;;;;;15.07;6.45;;;2.00;99.90;;;1.23;100.00;97164.03;5029978;28;20128;-71
2021/12/06 05:01:20;;;;;;;24.85;8.02;;;2.00;99.90;;;1.08;100.00;97164.19;5029287;28;20405;-71
2021/12/06 05:03:48;;;;;;;20.13;8.33;;;2.00;99.90;;;0.69;100.00;97175.69;5029663;28;20053;-70
2021/12/06 05:06:22;;;;;;;41.38;10.65;;;2.00;99.90;;;0.59;100.00;97172.38;5031406;28;20119;-71
2021/12/06 05:08:56;;;;;;;31.80;9.57;;;1.90;99.90;;;0.28;100.00;97172.66;5013823;28;20085;-71
2021/12/06 05:11:27;;;;;;;102.75;15.25;;;1.80;99.90;;;0.01;100.00;97173.72;5022743;28;20630;-70
2021/12/06 05:13:55;;;;;;;45.55;11.23;;;1.70;99.90;;;0.02;100.00;97182.22;5031483;28;20457;-71
2021/12/06 05:16:25;;;;;;;62.53;12.10;;;1.60;99.90;;;0.10;100.00;97190.66;5024496;28;20117;-71
2021/12/06 05:18:52;;;;;;;37.33;10.80;;;1.50;99.90;;;0.10;100.00;97188.97;5031281;28;20049;-70
2021/12/06 05:21:20;;;;;;;34.22;9.35;;;1.50;99.90;;;0.18;100.00;97189.75;5035764;28;20057;-70
2021/12/06 05:23:47;;;;;;;20.58;8.63;;;1.50;99.90;;;0.34;100.00;97193.03;5026782;28;20103;-70
2021/12/06 05:26:14;;;;;;;15.02;7.15;;;1.50;99.90;;;0.52;100.00;97194.56;5019443;28;20132;-70
2021/12/06 05:28:43;;;;;;;15.05;7.45;;;1.60;99.90;;;0.70;100.00;97198.66;5032676;28;20126;-70
2021/12/06 05:31:15;;;;;;;14.73;7.22;;;1.70;99.90;;;0.75;100.00;97196.06;5029668;28;20084;-70
2021/12/06 05:33:46;;;;;;;12.85;6.53;;;1.70;99.90;;;0.71;100.00;97200.38;5005633;28;20057;-70
2021/12/06 05:36:15;;;;;;;13.68;6.78;;;1.80;99.90;;;0.92;100.00;97204.41;5025568;28;20042;-70
2021/12/06 05:38:42;;;;;;;27.95;10.35;;;1.80;99.90;;;0.60;100.00;97209.84;5035303;28;20068;-71
2021/12/06 05:41:10;;;;;;;58.17;12.07;;;1.80;99.90;;;0.39;100.00;97213.41;5025157;28;20124;-70
2021/12/06 05:43:37;;;;;;;41.05;9.38;;;1.80;99.90;;;0.38;100.00;97221.91;5023734;28;20186;-71
2021/12/06 05:46:04;;;;;;;44.33;10.60;;;1.80;99.90;;;0.40;100.00;97215.94;5032456;28;20543;-71
2021/12/06 05:48:31;;;;;;;37.08;7.68;;;1.80;99.90;;;0.49;100.00;97224.41;5028997;28;20080;-70
2021/12/06 05:50:58;;;;;;;142.40;13.70;;;1.80;99.90;;;0.51;100.00;97228.63;5024008;28;20076;-71
2021/12/06 05:53:26;;;;;;;161.60;12.55;;;1.80;99.90;;;0.45;100.00;97236.34;5031540;28;20573;-70
2021/12/06 05:55:55;;;;;;;64.93;9.60;;;1.70;99.90;;;0.57;100.00;97241.34;5003740;28;20053;-70
2021/12/06 05:58:26;;;;;;;101.07;11.00;;;1.70;99.90;;;0.56;100.00;97243.91;5020845;28;20049;-70
2021/12/06 06:00:56;;;;;;;40.05;7.80;;;1.70;99.90;;;0.67;100.00;97248.94;5031328;28;20057;-70
2021/12/06 06:03:23;;;;;;;136.80;12.68;;;1.80;99.90;;;0.58;100.00;97247.31;5016274;28;20129;-68
2021/12/06 06:05:52;;;;;;;27.75;7.35;;;1.80;99.90;;;0.82;100.00;97252.22;5017718;28;20050;-70
2021/12/06 06:08:19;;;;;;;30.88;8.00;;;1.80;99.90;;;0.85;100.00;97253.88;5028314;28;20140;-71
2021/12/06 06:10:47;;;;;;;25.05;7.43;;;1.90;99.90;;;1.02;100.00;97267.31;5016429;28;20061;-70
2021/12/06 06:13:14;;;;;;;20.15;8.07;;;2.00;99.90;;;1.26;100.00;97262.84;5016735;28;20086;-71
2021/12/06 06:15:41;;;;;;;23.65;9.82;;;2.00;99.90;;;1.13;100.00;97262.13;5022442;28;20632;-71
2021/12/06 06:18:09;;;;;;;34.58;9.77;;;2.00;99.90;;;1.12;100.00;97265.56;5026118;28;20083;-70
2021/12/06 06:20:43;;;;;;;21.70;10.50;;;2.10;99.90;;;1.05;100.00;97281.81;5026296;28;20081;-70
2021/12/06 06:23:11;;;;;;;23.42;9.13;;;2.10;99.90;;;1.04;100.00;97280.09;5020874;28;20475;-70
2021/12/06 06:25:39;;;;;;;21.27;9.05;;;2.00;99.90;;;1.08;100.00;97289.44;5026474;28;20096;-70
2021/12/06 06:28:06;;;;;;;39.28;13.20;;;2.00;99.90;;;0.99;100.00;97285.25;5018115;28;20135;-69
2021/12/06 06:30:34;;;;;;;31.05;12.75;;;2.00;99.90;;;1.01;100.00;97303.16;5032344;28;20128;-70
2021/12/06 06:33:02;;;;;;;32.95;9.00;;;2.00;99.90;;;0.89;100.00;97296.44;5032398;28;20430;-70
2021/12/06 06:35:30;;;;;;;17.98;9.02;;;1.90;99.90;;;0.81;100.00;97305.88;5043958;28;20079;-69
2021/12/06 06:37:58;;;;;;;16.70;8.80;;;2.00;99.90;;;0.90;100.00;97304.94;5018094;28;20046;-70
2021/12/06 06:40:26;;;;;;;22.50;10.05;;;1.90;99.90;;;0.98;100.00;97306.56;5030118;28;20080;-70
2021/12/06 06:42:53;;;;;;;18.67;9.10;;;2.00;99.90;;;1.24;100.00;97313.16;5025484;28;20038;-69
2021/12/06 06:45:22;;;;;;;19.20;7.90;;;2.00;99.90;;;1.24;100.00;97313.16;5043276;28;20084;-70
2021/12/06 06:47:49;;;;;;;20.30;8.05;;;2.00;99.90;;;1.21;100.00;97314.03;5025986;28;20076;-70
2021/12/06 06:50:18;;;;;;;38.08;9.13;;;2.00;99.90;;;0.99;100.00;97318.47;5040976;28;20152;-70
2021/12/06 06:52:46;;;;;;;91.95;13.70;;;2.10;99.90;;;0.86;100.00;97323.72;5041160;28;20089;-70
2021/12/06 06:55:15;;;;;;;31.70;9.50;;;2.00;99.90;;;1.11;100.00;97321.78;5030715;28;20104;-70
2021/12/06 06:57:44;;;;;;;194.02;19.08;;;2.10;99.90;;;0.58;100.00;97321.38;5009930;28;20038;-69
2021/12/06 07:00:29;;;;;;;55.17;12.68;;;2.10;99.90;;;0.72;100.00;97331.47;5020163;28;20128;-70
2021/12/06 07:02:57;;;;;;;71.88;28.83;;;2.00;99.90;;;0.49;100.00;97326.53;5018616;28;20521;-70
2021/12/06 07:05:26;;;;;;;139.10;32.05;;;1.80;99.90;;;0.47;100.00;97339.31;5021680;28;20490;-70
2021/12/06 07:07:53;;;;;;;36.28;16.42;;;1.70;99.90;;;0.72;100.00;97347.66;5026177;28;20050;-70
2021/12/06 07:10:20;;;;;;;163.43;23.70;;;1.60;99.90;;;0.54;100.00;97337.56;5022744;28;20128;-70
2021/12/06 07:12:50;;;;;;;69.32;21.90;;;1.60;99.90;;;0.58;100.00;97352.03;5025584;28;20144;-70
2021/12/06 07:15:25;;;;;;;59.97;14.35;;;1.70;99.90;;;0.53;100.00;97346.09;5023405;28;20118;-69
2021/12/06 07:17:53;;;;;;;104.72;13.23;;;1.70;99.90;;;0.65;100.00;97347.72;5020897;28;20083;-71
2021/12/06 07:20:23;;;;;;;87.95;11.60;;;1.70;99.90;;;0.56;100.00;97346.91;5026291;28;20549;-70
2021/12/06 07:22:52;;;;;;;91.07;10.85;;;1.70;99.90;;;0.54;100.00;97347.78;5026769;28;20100;-69
2021/12/06 07:25:26;;;;;;;91.30;15.07;;;1.70;99.90;;;0.48;100.00;97348.69;5031399;28;20191;-69
2021/12/06 07:27:55;;;;;;;108.05;11.20;;;1.70;99.90;;;0.54;100.00;97347.78;5027820;28;20076;-69
2021/12/06 07:30:22;;;;;;;121.63;12.25;;;1.70;99.90;;;0.50;100.00;97362.28;5022548;28;20104;-70
2021/12/06 07:32:54;;;;;;;202.02;15.30;;;1.70;99.90;;;0.47;100.00;97367.41;5026919;28;20167;-70
2021/12/06 07:35:22;;;;;;;133.65;14.55;;;1.70;99.90;;;0.47;100.00;97369.94;5027362;28;20073;-70
2021/12/06 07:37:50;;;;;;;123.60;13.18;;;1.60;99.90;;;0.53;100.00;97375.03;5029067;28;20049;-70
2021/12/06 07:40:18;;;;;;;141.60;15.02;;;1.70;99.90;;;0.63;100.00;97373.25;5023148;28;20096;-70
2021/12/06 07:42:47;;;;;;;187.43;16.15;;;1.70;99.90;;;0.58;100.00;97375.84;5042795;28;20128;-68
2021/12/06 07:45:16;;;;;;;96.63;12.93;;;1.70;99.90;;;0.58;100.00;97380.94;5023983;28;20172;-70
2021/12/06 07:47:43;;;;;;;120.30;11.88;;;1.70;99.90;;;0.68;100.00;97383.44;5019657;28;20100;-70
2021/12/06 07:50:16;;;;;;;117.60;13.55;;;1.80;99.90;;;0.61;100.00;97383.47;5019138;28;20136;-71
2021/12/06 07:52:51;;;;;;;170.23;14.63;;;1.80;99.90;;;0.50;100.00;97392.06;5041491;28;20056;-71
2021/12/06 07:55:21;;;;;;;335.02;27.23;;;1.70;99.90;;;0.28;100.00;97399.84;5022735;28;20128;-71
2021/12/06 07:57:48;;;;;;;233.05;21.77;;;1.60;99.90;;;0.17;100.00;97389.69;5030226;28;20053;-72
2021/12/06 08:00:23;;;;;;;141.50;23.80;;;1.60;99.90;;;0.32;100.00;97396.44;5031873;28;20084;-70
2021/12/06 08:02:50;;;;;;;53.20;12.35;;;1.50;99.90;;;0.57;100.00;97394.59;5024161;28;20195;-70
2021/12/06 08:05:30;;;;;;;64.80;9.88;;;1.60;99.90;;;0.62;100.00;97394.56;5027143;28;20046;-70
2021/12/06 08:08:13;;;;;;;66.03;13.70;;;1.70;99.90;;;0.57;100.00;97396.28;5021531;28;20144;-70
2021/12/06 08:10:52;;;;;;;51.08;11.38;;;1.70;99.90;;;0.61;100.00;97398.81;5024743;28;20045;-70
2021/12/06 08:13:24;;;;;;;65.45;12.38;;;1.70;99.90;;;0.51;100.00;97402.28;5033250;28;20128;-71
2021/12/06 08:15:56;;;;;;;101.85;20.58;;;1.70;99.90;;;0.38;100.00;97409.16;5024184;28;20088;-70
2021/12/06 08:18:24;;;;;;;186.25;19.35;;;1.70;99.90;;;0.45;100.00;97404.03;5033246;28;20052;-70
2021/12/06 08:20:51;;;;;;;216.43;20.85;;;1.70;99.90;;;0.45;100.00;97414.22;5027483;28;20120;-70
2021/12/06 08:23:18;;;;;;;51.70;11.65;;;1.80;99.90;;;0.64;100.00;97410.72;5042171;28;20077;-70
2021/12/06 08:25:49;;;;;;;39.10;11.07;;;1.90;99.90;;;0.96;100.00;97414.78;5034080;28;20141;-70
2021/12/06 08:28:23;;;;;;;173.65;16.45;;;1.90;99.90;;;0.74;100.00;97417.47;5024738;28;20045;-71
2021/12/06 08:30:52;;;;;;;27.77;9.75;;;1.90;99.90;;;0.97;100.00;97408.81;5029255;28;20085;-70
2021/12/06 08:33:21;;;;;;;49.97;10.48;;;1.90;99.90;;;1.06;100.00;97405.34;5023862;28;20053;-69
2021/12/06 08:35:52;;;;;;;24.58;9.55;;;2.00;99.90;;;1.01;100.00;97405.38;5037786;28;20490;-70
2021/12/06 08:38:27;;;;;;;21.15;8.63;;;2.10;99.90;;;1.19;100.00;97400.13;5029105;28;20049;-70
2021/12/06 08:40:57;;;;;;;36.83;8.52;;;2.20;99.90;;;1.27;100.00;97394.09;5031408;28;20053;-70
2021/12/06 08:43:24;;;;;;;108.22;25.55;;;2.30;99.90;;;1.10;100.00;97394.25;5036484;28;20088;-70
2021/12/06 08:45:58;;;;;;;138.95;32.58;;;2.40;99.90;;;0.74;100.00;97388.53;5031721;28;20480;-71
2021/12/06 08:48:29;;;;;;;42.13;16.40;;;2.30;99.90;;;0.60;100.00;97396.28;5025450;28;20052;-70
2021/12/06 08:51:00;;;;;;;22.63;12.05;;;2.30;99.90;;;0.69;100.00;97385.16;5028168;28;20081;-70
2021/12/06 08:53:29;;;;;;;30.52;13.38;;;2.20;99.90;;;0.91;100.00;97396.91;5025102;28;20409;-70
2021/12/06 08:55:57;;;;;;;43.83;14.13;;;2.20;99.90;;;0.86;100.00;97401.22;5042568;28;20468;-69
2021/12/06 08:58:24;;;;;;;41.25;13.40;;;2.10;99.90;;;0.66;100.00;97414.09;5025730;28;20079;-69
2021/12/06 09:00:52;;;;;;;45.20;14.18;;;2.20;99.90;;;0.57;100.00;97414.16;5027715;28;20133;-69
2021/12/06 09:03:19;;;;;;;87.00;39.65;;;2.30;99.90;;;0.73;100.00;97412.34;5019440;28;20069;-69
2021/12/06 09:05:51;;;;;;;40.55;20.00;;;2.40;99.90;;;1.03;100.00;97414.72;5030720;28;20195;-69
2021/12/06 09:08:19;;;;;;;14.88;7.88;;;2.50;99.90;;;1.22;100.00;97429.91;5022079;28;20046;-70
2021/12/06 09:10:50;;;;;;;11.15;7.28;;;2.50;99.90;;;1.18;100.00;97435.91;5032748;28;20141;-68
2021/12/06 09:13:19;;;;;;;11.50;6.75;;;2.50;99.90;;;1.35;100.00;97428.13;5030530;28;20045;-69
2021/12/06 09:15:47;;;;;;;16.67;8.65;;;2.50;99.90;;;1.38;100.00;97428.09;5030741;28;20081;-69
2021/12/06 09:18:14;;;;;;;17.27;9.02;;;2.50;99.90;;;1.23;100.00;97422.25;5033694;28;20037;-68
2021/12/06 09:20:43;;;;;;;15.35;7.50;;;2.70;99.90;;;0.97;100.00;97424.13;5041453;28;20074;-69
2021/12/06 09:23:12;;;;;;;13.27;6.78;;;2.60;99.90;;;1.24;100.00;97423.09;5037383;28;20045;-70
2021/12/06 09:25:42;;;;;;;10.77;5.78;;;2.60;99.90;;;1.61;100.00;97418.47;5036080;28;20049;-69
2021/12/06 09:28:11;;;;;;;11.82;6.03;;;2.60;99.90;;;1.46;100.00;97428.88;5028814;28;20383;-69
2021/12/06 09:30:40;;;;;;;12.25;6.45;;;2.70;99.90;;;1.43;100.00;97423.78;5027317;28;20152;-69
2021/12/06 09:33:10;;;;;;;12.23;6.35;;;2.60;99.90;;;1.41;100.00;97428.88;5028697;28;20525;-69
2021/12/06 09:35:43;;;;;;;13.38;6.47;;;2.60;99.90;;;1.46;100.00;97434.84;5028680;28;20053;-69
2021/12/06 09:38:15;;;;;;;17.27;8.82;;;2.60;99.90;;;1.13;100.00;97435.94;5029987;28;20061;-68
2021/12/06 09:40:47;;;;;;;18.67;10.05;;;2.70;99.90;;;1.12;100.00;97435.94;5024537;28;20470;-67
2021/12/06 09:43:15;;;;;;;15.75;7.68;;;2.80;99.90;;;1.23;100.00;97444.38;5029019;28;20042;-69
2021/12/06 09:45:43;;;;;;;15.23;7.88;;;2.70;99.90;;;1.14;100.00;97437.66;5037403;28;20112;-69
2021/12/06 09:48:15;;;;;;;12.32;6.82;;;2.70;99.90;;;1.53;100.00;97440.75;5043603;28;20045;-68
2021/12/06 09:51:08;;;;;;;11.50;6.53;;;2.70;99.90;;;1.79;100.00;97437.94;5009921;28;20105;-68
2021/12/06 09:53:39;;;;;;;11.98;6.88;;;2.90;99.90;;;1.56;100.00;97435.59;5024117;28;20107;-68
2021/12/06 09:56:15;;;;;;;11.27;5.70;;;2.80;99.90;;;1.86;100.00;97437.00;5029766;28;20129;-69
2021/12/06 09:58:44;;;;;;;13.82;7.18;;;2.90;99.90;;;1.88;100.00;97431.88;5029057;28;20472;-68
2021/12/06 10:01:24;;;;;;;12.00;6.75;;;3.10;99.90;;;2.06;100.00;97428.28;5025982;28;20046;-68
2021/12/06 10:03:55;;;;;;;16.52;8.40;;;3.10;99.90;;;1.86;100.00;97438.72;5022825;28;20038;-69
2021/12/06 10:06:23;;;;;;;12.93;7.10;;;3.10;99.90;;;1.91;100.00;97431.84;5030844;28;20547;-68
2021/12/06 10:08:51;;;;;;;13.00;7.68;;;3.10;99.90;;;1.93;100.00;97427.53;5025312;28;20069;-69
2021/12/06 10:11:21;;;;;;;12.43;7.30;;;3.00;99.90;;;1.97;100.00;97428.38;5026077;28;20076;-69
2021/12/06 10:13:49;;;;;;;11.70;6.72;;;3.10;99.90;;;2.03;100.00;97430.84;5027447;28;20129;-69
2021/12/06 10:16:18;;;;;;;13.88;8.13;;;3.10;99.90;;;2.02;100.00;97429.16;5045814;28;20045;-69
2021/12/06 10:18:46;;;;;;;17.38;10.95;;;3.10;99.90;;;1.61;100.00;97433.00;5019902;28;20060;-69
2021/12/06 10:21:15;;;;;;;12.60;6.93;;;3.10;99.90;;;1.63;100.00;97434.66;5029870;28;20467;-70
2021/12/06 10:23:43;;;;;;;11.60;7.15;;;3.20;99.90;;;1.64;100.00;97418.47;5020206;28;20159;-69
2021/12/06 10:26:14;;;;;;;14.75;7.95;;;3.20;99.90;;;1.52;100.00;97431.38;5027727;28;20053;-69
2021/12/06 10:28:43;;;;;;;13.10;7.20;;;3.20;99.90;;;1.59;100.00;97429.59;5023812;28;20049;-69
2021/12/06 10:31:14;;;;;;;11.23;6.60;;;3.20;99.90;;;1.92;100.00;97427.59;5016711;28;20088;-68
2021/12/06 10:33:46;;;;;;;19.02;9.93;;;3.20;99.90;;;1.74;100.00;97421.78;5028763;28;20335;-69
2021/12/06 10:36:16;;;;;;;16.77;9.55;;;3.40;99.90;;;1.59;100.00;97420.19;5025453;28;20085;-68
2021/12/06 10:38:52;;;;;;;17.67;8.93;;;3.50;99.90;;;1.45;100.00;97411.81;5024985;28;20547;-69
2021/12/06 10:41:25;;;;;;;17.75;8.32;;;3.40;99.90;;;1.46;100.00;97413.53;5028114;28;20147;-69
2021/12/06 10:44:09;;;;;;;22.60;10.23;;;3.40;99.90;;;1.50;100.00;97406.66;5019095;28;20180;-68